sensor_id;sensor_type;location;lat;lon;timestamp;P1;durP1;ratioP1;P2;durP2;ratioP2
982;SDS011;480;48.124;11.578;2023-04-16T00:00:13;2.47;;;2.27;;
982;SDS011;480;48.124;11.578;2023-04-16T00:02:41;2.43;;;2.20;;
982;SDS011;480;48.124;11.578;2023-04-16T00:05:08;2.80;;;2.60;;
982;SDS011;480;48.124;11.578;2023-04-16T00:07:35;3.70;;;3.23;;
982;SDS011;480;48.124;11.578;2023-04-16T00:10:02;2.93;;;2.63;;
982;SDS011;480;48.124;11.578;2023-04-16T00:12:30;3.17;;;2.97;;
982;SDS011;480;48.124;11.578;2023-04-16T00:14:57;2.93;;;2.40;;
982;SDS011;480;48.124;11.578;2023-04-16T00:17:24;4.63;;;3.33;;
982;SDS011;480;48.124;11.578;2023-04-16T00:19:52;3.03;;;2.83;;
982;SDS011;480;48.124;11.578;2023-04-16T00:22:19;3.63;;;2.80;;
982;SDS011;480;48.124;11.578;2023-04-16T00:24:46;5.00;;;4.50;;
982;SDS011;480;48.124;11.578;2023-04-16T00:27:13;4.43;;;3.43;;
982;SDS011;480;48.124;11.578;2023-04-16T00:29:40;4.13;;;3.73;;
982;SDS011;480;48.124;11.578;2023-04-16T00:32:07;4.23;;;3.40;;
982;SDS011;480;48.124;11.578;2023-04-16T00:34:34;3.57;;;3.27;;
982;SDS011;480;48.124;11.578;2023-04-16T00:37:02;4.03;;;3.70;;
982;SDS011;480;48.124;11.578;2023-04-16T00:39:29;4.77;;;4.37;;
982;SDS011;480;48.124;11.578;2023-04-16T00:41:56;5.53;;;4.60;;
982;SDS011;480;48.124;11.578;2023-04-16T00:44:23;5.17;;;3.87;;
982;SDS011;480;48.124;11.578;2023-04-16T00:46:50;4.30;;;3.83;;
982;SDS011;480;48.124;11.578;2023-04-16T00:49:17;5.67;;;3.77;;
982;SDS011;480;48.124;11.578;2023-04-16T00:51:44;4.50;;;4.10;;
982;SDS011;480;48.124;11.578;2023-04-16T00:54:13;4.93;;;3.90;;
982;SDS011;480;48.124;11.578;2023-04-16T00:56:40;6.23;;;4.23;;
982;SDS011;480;48.124;11.578;2023-04-16T00:59:08;5.23;;;4.23;;
982;SDS011;480;48.124;11.578;2023-04-16T01:01:36;6.13;;;4.20;;
982;SDS011;480;48.124;11.578;2023-04-16T01:04:03;3.97;;;3.60;;
982;SDS011;480;48.124;11.578;2023-04-16T01:06:31;5.03;;;3.57;;
982;SDS011;480;48.124;11.578;2023-04-16T01:08:58;4.10;;;3.70;;
982;SDS011;480;48.124;11.578;2023-04-16T01:11:26;6.60;;;4.83;;
982;SDS011;480;48.124;11.578;2023-04-16T01:13:53;4.17;;;3.60;;
982;SDS011;480;48.124;11.578;2023-04-16T01:16:20;4.33;;;3.57;;
982;SDS011;480;48.124;11.578;2023-04-16T01:18:47;4.27;;;3.57;;
982;SDS011;480;48.124;11.578;2023-04-16T01:21:16;4.17;;;3.70;;
982;SDS011;480;48.124;11.578;2023-04-16T01:23:42;5.70;;;3.77;;
982;SDS011;480;48.124;11.578;2023-04-16T01:26:10;4.23;;;3.83;;
982;SDS011;480;48.124;11.578;2023-04-16T01:28:36;4.20;;;3.80;;
982;SDS011;480;48.124;11.578;2023-04-16T01:31:03;3.87;;;3.47;;
982;SDS011;480;48.124;11.578;2023-04-16T01:33:30;5.00;;;3.90;;
982;SDS011;480;48.124;11.578;2023-04-16T01:35:58;3.77;;;3.40;;
982;SDS011;480;48.124;11.578;2023-04-16T01:38:26;5.10;;;4.00;;
982;SDS011;480;48.124;11.578;2023-04-16T01:40:54;4.60;;;3.93;;
982;SDS011;480;48.124;11.578;2023-04-16T01:43:22;4.10;;;3.63;;
982;SDS011;480;48.124;11.578;2023-04-16T01:45:49;3.73;;;3.17;;
982;SDS011;480;48.124;11.578;2023-04-16T01:48:16;5.97;;;4.70;;
982;SDS011;480;48.124;11.578;2023-04-16T01:50:43;5.00;;;4.13;;
982;SDS011;480;48.124;11.578;2023-04-16T01:53:10;4.77;;;3.80;;
982;SDS011;480;48.124;11.578;2023-04-16T01:55:38;4.70;;;3.30;;
982;SDS011;480;48.124;11.578;2023-04-16T01:58:05;7.50;;;5.03;;
982;SDS011;480;48.124;11.578;2023-04-16T02:00:35;8.10;;;4.10;;
982;SDS011;480;48.124;11.578;2023-04-16T02:03:02;7.63;;;4.27;;
982;SDS011;480;48.124;11.578;2023-04-16T02:05:29;2.90;;;2.67;;
982;SDS011;480;48.124;11.578;2023-04-16T02:07:56;4.20;;;3.83;;
982;SDS011;480;48.124;11.578;2023-04-16T02:10:23;5.20;;;3.63;;
982;SDS011;480;48.124;11.578;2023-04-16T02:12:51;4.53;;;4.00;;
982;SDS011;480;48.124;11.578;2023-04-16T02:15:18;4.70;;;3.77;;
982;SDS011;480;48.124;11.578;2023-04-16T02:17:45;5.20;;;4.00;;
982;SDS011;480;48.124;11.578;2023-04-16T02:20:15;4.03;;;3.03;;
982;SDS011;480;48.124;11.578;2023-04-16T02:22:42;4.60;;;4.13;;
982;SDS011;480;48.124;11.578;2023-04-16T02:25:09;4.83;;;3.83;;
982;SDS011;480;48.124;11.578;2023-04-16T02:27:38;3.83;;;3.53;;
982;SDS011;480;48.124;11.578;2023-04-16T02:30:07;4.40;;;4.00;;
982;SDS011;480;48.124;11.578;2023-04-16T02:32:35;5.00;;;4.17;;
982;SDS011;480;48.124;11.578;2023-04-16T02:35:02;5.00;;;4.47;;
982;SDS011;480;48.124;11.578;2023-04-16T02:37:29;5.23;;;4.00;;
982;SDS011;480;48.124;11.578;2023-04-16T02:39:56;4.93;;;4.47;;
982;SDS011;480;48.124;11.578;2023-04-16T02:42:23;4.60;;;4.20;;
982;SDS011;480;48.124;11.578;2023-04-16T02:44:50;5.03;;;4.47;;
982;SDS011;480;48.124;11.578;2023-04-16T02:47:19;6.53;;;4.60;;
982;SDS011;480;48.124;11.578;2023-04-16T02:49:45;6.03;;;3.70;;
982;SDS011;480;48.124;11.578;2023-04-16T02:52:12;6.33;;;4.63;;
982;SDS011;480;48.124;11.578;2023-04-16T02:54:39;4.30;;;3.27;;
982;SDS011;480;48.124;11.578;2023-04-16T02:57:06;7.50;;;4.27;;
982;SDS011;480;48.124;11.578;2023-04-16T02:59:33;5.07;;;3.80;;
982;SDS011;480;48.124;11.578;2023-04-16T03:02:00;3.93;;;3.57;;
982;SDS011;480;48.124;11.578;2023-04-16T03:04:29;5.93;;;4.47;;
982;SDS011;480;48.124;11.578;2023-04-16T03:06:57;6.77;;;5.10;;
982;SDS011;480;48.124;11.578;2023-04-16T03:09:24;4.03;;;3.50;;
982;SDS011;480;48.124;11.578;2023-04-16T03:11:52;4.10;;;3.70;;
982;SDS011;480;48.124;11.578;2023-04-16T03:14:19;4.20;;;3.40;;
982;SDS011;480;48.124;11.578;2023-04-16T03:16:46;3.20;;;2.90;;
982;SDS011;480;48.124;11.578;2023-04-16T03:19:13;4.03;;;3.60;;
982;SDS011;480;48.124;11.578;2023-04-16T03:21:41;5.77;;;3.53;;
982;SDS011;480;48.124;11.578;2023-04-16T03:24:08;3.90;;;3.30;;
982;SDS011;480;48.124;11.578;2023-04-16T03:26:35;3.20;;;2.90;;
982;SDS011;480;48.124;11.578;2023-04-16T03:29:02;5.17;;;3.20;;
982;SDS011;480;48.124;11.578;2023-04-16T03:31:29;4.87;;;3.83;;
982;SDS011;480;48.124;11.578;2023-04-16T03:33:56;4.93;;;4.07;;
982;SDS011;480;48.124;11.578;2023-04-16T03:36:23;4.00;;;3.60;;
982;SDS011;480;48.124;11.578;2023-04-16T03:38:53;4.10;;;3.43;;
982;SDS011;480;48.124;11.578;2023-04-16T03:41:20;5.27;;;3.57;;
982;SDS011;480;48.124;11.578;2023-04-16T03:43:46;3.37;;;3.07;;
982;SDS011;480;48.124;11.578;2023-04-16T03:46:13;2.97;;;2.57;;
982;SDS011;480;48.124;11.578;2023-04-16T03:48:40;3.87;;;2.80;;
982;SDS011;480;48.124;11.578;2023-04-16T03:51:07;4.60;;;3.00;;
982;SDS011;480;48.124;11.578;2023-04-16T03:53:34;3.80;;;3.10;;
982;SDS011;480;48.124;11.578;2023-04-16T03:56:03;3.90;;;3.33;;
982;SDS011;480;48.124;11.578;2023-04-16T03:58:30;2.83;;;2.63;;
982;SDS011;480;48.124;11.578;2023-04-16T04:00:57;2.40;;;2.20;;
982;SDS011;480;48.124;11.578;2023-04-16T04:03:24;5.43;;;3.37;;
982;SDS011;480;48.124;11.578;2023-04-16T04:05:51;2.97;;;2.67;;
982;SDS011;480;48.124;11.578;2023-04-16T04:08:18;3.40;;;3.10;;
982;SDS011;480;48.124;11.578;2023-04-16T04:10:45;4.47;;;2.57;;
982;SDS011;480;48.124;11.578;2023-04-16T04:13:13;3.60;;;3.30;;
982;SDS011;480;48.124;11.578;2023-04-16T04:15:40;3.57;;;3.17;;
982;SDS011;480;48.124;11.578;2023-04-16T04:18:07;3.63;;;3.00;;
982;SDS011;480;48.124;11.578;2023-04-16T04:20:37;3.80;;;2.63;;
982;SDS011;480;48.124;11.578;2023-04-16T04:23:04;3.70;;;3.23;;
982;SDS011;480;48.124;11.578;2023-04-16T04:25:31;3.83;;;3.00;;
982;SDS011;480;48.124;11.578;2023-04-16T04:27:58;3.77;;;3.00;;
982;SDS011;480;48.124;11.578;2023-04-16T04:30:27;3.10;;;2.80;;
982;SDS011;480;48.124;11.578;2023-04-16T04:32:54;3.77;;;3.47;;
982;SDS011;480;48.124;11.578;2023-04-16T04:35:21;4.60;;;3.20;;
982;SDS011;480;48.124;11.578;2023-04-16T04:37:48;7.47;;;3.50;;
982;SDS011;480;48.124;11.578;2023-04-16T04:40:15;3.97;;;3.63;;
982;SDS011;480;48.124;11.578;2023-04-16T04:42:42;3.17;;;2.97;;
982;SDS011;480;48.124;11.578;2023-04-16T04:45:09;4.50;;;3.90;;
982;SDS011;480;48.124;11.578;2023-04-16T04:47:38;4.10;;;3.70;;
982;SDS011;480;48.124;11.578;2023-04-16T04:50:05;5.53;;;3.10;;
982;SDS011;480;48.124;11.578;2023-04-16T04:52:33;4.53;;;3.93;;
982;SDS011;480;48.124;11.578;2023-04-16T04:55:00;4.80;;;4.13;;
982;SDS011;480;48.124;11.578;2023-04-16T04:57:27;2.70;;;2.50;;
982;SDS011;480;48.124;11.578;2023-04-16T04:59:54;3.37;;;3.07;;
982;SDS011;480;48.124;11.578;2023-04-16T05:02:21;3.13;;;2.93;;
982;SDS011;480;48.124;11.578;2023-04-16T05:04:49;3.87;;;3.30;;
982;SDS011;480;48.124;11.578;2023-04-16T05:07:16;3.47;;;3.17;;
982;SDS011;480;48.124;11.578;2023-04-16T05:09:43;3.50;;;3.20;;
982;SDS011;480;48.124;11.578;2023-04-16T05:12:10;3.63;;;2.77;;
982;SDS011;480;48.124;11.578;2023-04-16T05:14:37;3.53;;;3.23;;
982;SDS011;480;48.124;11.578;2023-04-16T05:17:04;2.80;;;2.60;;
982;SDS011;480;48.124;11.578;2023-04-16T05:19:31;3.13;;;2.83;;
982;SDS011;480;48.124;11.578;2023-04-16T05:22:00;3.10;;;2.80;;
982;SDS011;480;48.124;11.578;2023-04-16T05:24:27;3.57;;;3.03;;
982;SDS011;480;48.124;11.578;2023-04-16T05:26:55;3.47;;;3.17;;
982;SDS011;480;48.124;11.578;2023-04-16T05:29:23;5.10;;;3.50;;
982;SDS011;480;48.124;11.578;2023-04-16T05:31:50;3.60;;;2.60;;
982;SDS011;480;48.124;11.578;2023-04-16T05:34:17;3.23;;;3.00;;
982;SDS011;480;48.124;11.578;2023-04-16T05:36:44;3.53;;;3.20;;
982;SDS011;480;48.124;11.578;2023-04-16T05:39:12;3.43;;;3.17;;
982;SDS011;480;48.124;11.578;2023-04-16T05:41:39;2.60;;;2.40;;
982;SDS011;480;48.124;11.578;2023-04-16T05:44:06;2.57;;;2.37;;
982;SDS011;480;48.124;11.578;2023-04-16T05:46:33;2.60;;;2.40;;
982;SDS011;480;48.124;11.578;2023-04-16T05:49:00;4.10;;;2.87;;
982;SDS011;480;48.124;11.578;2023-04-16T05:51:27;3.30;;;3.00;;
982;SDS011;480;48.124;11.578;2023-04-16T05:53:54;3.00;;;2.70;;
982;SDS011;480;48.124;11.578;2023-04-16T05:56:23;2.60;;;2.40;;
982;SDS011;480;48.124;11.578;2023-04-16T05:58:50;3.40;;;2.90;;
982;SDS011;480;48.124;11.578;2023-04-16T06:01:17;2.23;;;2.03;;
982;SDS011;480;48.124;11.578;2023-04-16T06:03:44;2.00;;;1.90;;
982;SDS011;480;48.124;11.578;2023-04-16T06:06:11;2.20;;;2.07;;
982;SDS011;480;48.124;11.578;2023-04-16T06:08:38;2.40;;;2.13;;
982;SDS011;480;48.124;11.578;2023-04-16T06:11:05;2.60;;;2.40;;
982;SDS011;480;48.124;11.578;2023-04-16T06:13:35;4.23;;;2.00;;
982;SDS011;480;48.124;11.578;2023-04-16T06:16:02;1.87;;;1.77;;
982;SDS011;480;48.124;11.578;2023-04-16T06:18:30;2.37;;;2.10;;
982;SDS011;480;48.124;11.578;2023-04-16T06:20:57;1.57;;;1.47;;
982;SDS011;480;48.124;11.578;2023-04-16T06:23:24;2.07;;;1.90;;
982;SDS011;480;48.124;11.578;2023-04-16T06:25:51;3.50;;;1.70;;
982;SDS011;480;48.124;11.578;2023-04-16T06:28:18;1.80;;;1.70;;
982;SDS011;480;48.124;11.578;2023-04-16T06:30:47;1.20;;;1.20;;
982;SDS011;480;48.124;11.578;2023-04-16T06:33:14;1.40;;;1.30;;
982;SDS011;480;48.124;11.578;2023-04-16T06:35:42;1.43;;;1.33;;
982;SDS011;480;48.124;11.578;2023-04-16T06:38:09;1.53;;;1.43;;
982;SDS011;480;48.124;11.578;2023-04-16T06:40:36;1.50;;;1.40;;
982;SDS011;480;48.124;11.578;2023-04-16T06:43:03;2.20;;;1.20;;
982;SDS011;480;48.124;11.578;2023-04-16T06:45:30;1.13;;;1.03;;
982;SDS011;480;48.124;11.578;2023-04-16T06:47:59;1.33;;;1.20;;
982;SDS011;480;48.124;11.578;2023-04-16T06:50:27;1.23;;;1.13;;
982;SDS011;480;48.124;11.578;2023-04-16T06:52:55;1.30;;;1.20;;
982;SDS011;480;48.124;11.578;2023-04-16T06:55:22;1.03;;;1.00;;
982;SDS011;480;48.124;11.578;2023-04-16T06:57:49;1.50;;;1.13;;
982;SDS011;480;48.124;11.578;2023-04-16T07:00:16;1.07;;;0.83;;
982;SDS011;480;48.124;11.578;2023-04-16T07:02:44;0.67;;;0.67;;
982;SDS011;480;48.124;11.578;2023-04-16T07:05:15;0.90;;;0.70;;
982;SDS011;480;48.124;11.578;2023-04-16T07:07:42;1.17;;;0.70;;
982;SDS011;480;48.124;11.578;2023-04-16T07:10:09;3.70;;;0.97;;
982;SDS011;480;48.124;11.578;2023-04-16T07:12:36;1.17;;;1.07;;
982;SDS011;480;48.124;11.578;2023-04-16T07:15:04;0.73;;;0.70;;
982;SDS011;480;48.124;11.578;2023-04-16T07:17:32;1.20;;;1.20;;
982;SDS011;480;48.124;11.578;2023-04-16T07:19:59;1.63;;;1.53;;
982;SDS011;480;48.124;11.578;2023-04-16T07:22:27;0.70;;;0.70;;
982;SDS011;480;48.124;11.578;2023-04-16T07:24:54;0.53;;;0.53;;
982;SDS011;480;48.124;11.578;2023-04-16T07:27:21;1.00;;;0.90;;
982;SDS011;480;48.124;11.578;2023-04-16T07:29:49;0.80;;;0.50;;
982;SDS011;480;48.124;11.578;2023-04-16T07:32:15;1.00;;;0.77;;
982;SDS011;480;48.124;11.578;2023-04-16T07:34:43;0.70;;;0.50;;
982;SDS011;480;48.124;11.578;2023-04-16T07:37:10;0.70;;;0.70;;
982;SDS011;480;48.124;11.578;2023-04-16T07:39:38;0.77;;;0.67;;
982;SDS011;480;48.124;11.578;2023-04-16T07:42:06;0.63;;;0.50;;
982;SDS011;480;48.124;11.578;2023-04-16T07:44:33;0.60;;;0.60;;
982;SDS011;480;48.124;11.578;2023-04-16T07:47:00;0.50;;;0.50;;
982;SDS011;480;48.124;11.578;2023-04-16T07:49:26;0.50;;;0.50;;
982;SDS011;480;48.124;11.578;2023-04-16T07:51:53;1.20;;;0.80;;
982;SDS011;480;48.124;11.578;2023-04-16T07:54:20;0.60;;;0.60;;
982;SDS011;480;48.124;11.578;2023-04-16T07:56:49;1.67;;;0.77;;
982;SDS011;480;48.124;11.578;2023-04-16T07:59:16;0.70;;;0.50;;
982;SDS011;480;48.124;11.578;2023-04-16T08:01:43;0.80;;;0.80;;
982;SDS011;480;48.124;11.578;2023-04-16T08:04:10;0.50;;;0.50;;
982;SDS011;480;48.124;11.578;2023-04-16T08:06:38;0.73;;;0.50;;
982;SDS011;480;48.124;11.578;2023-04-16T08:09:05;0.70;;;0.70;;
982;SDS011;480;48.124;11.578;2023-04-16T08:11:40;0.50;;;0.50;;
982;SDS011;480;48.124;11.578;2023-04-16T08:14:22;0.50;;;0.50;;
982;SDS011;480;48.124;11.578;2023-04-16T08:16:49;2.23;;;0.87;;
982;SDS011;480;48.124;11.578;2023-04-16T08:19:16;0.70;;;0.70;;
982;SDS011;480;48.124;11.578;2023-04-16T08:21:43;0.40;;;0.40;;
982;SDS011;480;48.124;11.578;2023-04-16T08:24:10;0.60;;;0.50;;
982;SDS011;480;48.124;11.578;2023-04-16T08:26:37;0.80;;;0.80;;
982;SDS011;480;48.124;11.578;2023-04-16T08:29:05;0.77;;;0.77;;
982;SDS011;480;48.124;11.578;2023-04-16T08:31:35;0.60;;;0.50;;
982;SDS011;480;48.124;11.578;2023-04-16T08:34:17;0.50;;;0.50;;
982;SDS011;480;48.124;11.578;2023-04-16T08:36:45;0.80;;;0.80;;
982;SDS011;480;48.124;11.578;2023-04-16T08:39:12;0.80;;;0.80;;
982;SDS011;480;48.124;11.578;2023-04-16T08:41:40;0.80;;;0.60;;
982;SDS011;480;48.124;11.578;2023-04-16T08:44:10;1.03;;;0.93;;
982;SDS011;480;48.124;11.578;2023-04-16T08:46:46;0.73;;;0.50;;
982;SDS011;480;48.124;11.578;2023-04-16T08:49:16;0.80;;;0.80;;
982;SDS011;480;48.124;11.578;2023-04-16T08:51:44;0.70;;;0.70;;
982;SDS011;480;48.124;11.578;2023-04-16T08:54:20;0.40;;;0.40;;
982;SDS011;480;48.124;11.578;2023-04-16T08:56:59;0.73;;;0.73;;
982;SDS011;480;48.124;11.578;2023-04-16T08:59:34;0.50;;;0.50;;
982;SDS011;480;48.124;11.578;2023-04-16T09:02:03;0.60;;;0.60;;
982;SDS011;480;48.124;11.578;2023-04-16T09:04:31;0.60;;;0.60;;
982;SDS011;480;48.124;11.578;2023-04-16T09:06:59;0.80;;;0.53;;
982;SDS011;480;48.124;11.578;2023-04-16T09:09:29;0.60;;;0.60;;
982;SDS011;480;48.124;11.578;2023-04-16T09:11:58;0.40;;;0.40;;
982;SDS011;480;48.124;11.578;2023-04-16T09:14:25;4.00;;;0.70;;
982;SDS011;480;48.124;11.578;2023-04-16T09:16:52;1.20;;;1.10;;
982;SDS011;480;48.124;11.578;2023-04-16T09:19:26;0.60;;;0.60;;
982;SDS011;480;48.124;11.578;2023-04-16T09:21:53;0.50;;;0.50;;
982;SDS011;480;48.124;11.578;2023-04-16T09:24:20;0.50;;;0.40;;
982;SDS011;480;48.124;11.578;2023-04-16T09:26:47;0.40;;;0.40;;
982;SDS011;480;48.124;11.578;2023-04-16T09:29:31;0.50;;;0.47;;
982;SDS011;480;48.124;11.578;2023-04-16T09:32:00;1.27;;;1.00;;
982;SDS011;480;48.124;11.578;2023-04-16T09:34:30;1.53;;;0.77;;
982;SDS011;480;48.124;11.578;2023-04-16T09:37:12;0.50;;;0.50;;
982;SDS011;480;48.124;11.578;2023-04-16T09:39:41;0.60;;;0.60;;
982;SDS011;480;48.124;11.578;2023-04-16T09:42:08;0.90;;;0.80;;
982;SDS011;480;48.124;11.578;2023-04-16T09:44:35;0.60;;;0.60;;
982;SDS011;480;48.124;11.578;2023-04-16T09:47:05;0.77;;;0.70;;
982;SDS011;480;48.124;11.578;2023-04-16T09:49:34;0.43;;;0.40;;
982;SDS011;480;48.124;11.578;2023-04-16T09:52:07;0.60;;;0.60;;
982;SDS011;480;48.124;11.578;2023-04-16T09:54:37;0.40;;;0.40;;
982;SDS011;480;48.124;11.578;2023-04-16T09:57:07;0.50;;;0.40;;
982;SDS011;480;48.124;11.578;2023-04-16T09:59:35;0.60;;;0.60;;
982;SDS011;480;48.124;11.578;2023-04-16T10:02:02;0.90;;;0.50;;
982;SDS011;480;48.124;11.578;2023-04-16T10:04:29;0.80;;;0.50;;
982;SDS011;480;48.124;11.578;2023-04-16T10:07:03;0.73;;;0.40;;
982;SDS011;480;48.124;11.578;2023-04-16T10:09:31;0.50;;;0.40;;
982;SDS011;480;48.124;11.578;2023-04-16T10:12:02;2.00;;;0.63;;
982;SDS011;480;48.124;11.578;2023-04-16T10:14:29;0.57;;;0.57;;
982;SDS011;480;48.124;11.578;2023-04-16T10:17:05;0.60;;;0.50;;
982;SDS011;480;48.124;11.578;2023-04-16T10:19:48;0.77;;;0.50;;
982;SDS011;480;48.124;11.578;2023-04-16T10:22:21;0.60;;;0.50;;
982;SDS011;480;48.124;11.578;2023-04-16T10:24:48;0.70;;;0.60;;
982;SDS011;480;48.124;11.578;2023-04-16T10:27:16;0.90;;;0.90;;
982;SDS011;480;48.124;11.578;2023-04-16T10:29:44;0.93;;;0.57;;
982;SDS011;480;48.124;11.578;2023-04-16T10:32:12;1.27;;;0.70;;
982;SDS011;480;48.124;11.578;2023-04-16T10:34:40;0.60;;;0.60;;
982;SDS011;480;48.124;11.578;2023-04-16T10:37:07;2.30;;;0.70;;
982;SDS011;480;48.124;11.578;2023-04-16T10:39:35;0.60;;;0.60;;
982;SDS011;480;48.124;11.578;2023-04-16T10:42:06;0.53;;;0.53;;
982;SDS011;480;48.124;11.578;2023-04-16T10:44:34;0.50;;;0.50;;
982;SDS011;480;48.124;11.578;2023-04-16T10:47:01;0.60;;;0.60;;
982;SDS011;480;48.124;11.578;2023-04-16T10:49:35;0.67;;;0.60;;
982;SDS011;480;48.124;11.578;2023-04-16T10:52:06;0.50;;;0.50;;
982;SDS011;480;48.124;11.578;2023-04-16T10:54:36;0.50;;;0.40;;
982;SDS011;480;48.124;11.578;2023-04-16T10:57:04;0.80;;;0.63;;
982;SDS011;480;48.124;11.578;2023-04-16T10:59:32;0.50;;;0.50;;
982;SDS011;480;48.124;11.578;2023-04-16T11:02:00;0.80;;;0.80;;
982;SDS011;480;48.124;11.578;2023-04-16T11:04:32;0.80;;;0.70;;
982;SDS011;480;48.124;11.578;2023-04-16T11:07:01;0.50;;;0.50;;
982;SDS011;480;48.124;11.578;2023-04-16T11:12:32;0.50;;;0.50;;
982;SDS011;480;48.124;11.578;2023-04-16T11:15:02;1.03;;;0.80;;
982;SDS011;480;48.124;11.578;2023-04-16T11:17:30;0.63;;;0.63;;
982;SDS011;480;48.124;11.578;2023-04-16T11:19:58;0.70;;;0.70;;
982;SDS011;480;48.124;11.578;2023-04-16T11:22:25;0.63;;;0.63;;
982;SDS011;480;48.124;11.578;2023-04-16T11:24:53;0.60;;;0.60;;
982;SDS011;480;48.124;11.578;2023-04-16T11:27:22;0.93;;;0.87;;
982;SDS011;480;48.124;11.578;2023-04-16T11:29:56;0.80;;;0.80;;
982;SDS011;480;48.124;11.578;2023-04-16T11:32:24;1.20;;;0.60;;
982;SDS011;480;48.124;11.578;2023-04-16T11:34:51;0.60;;;0.60;;
982;SDS011;480;48.124;11.578;2023-04-16T11:37:19;0.70;;;0.70;;
982;SDS011;480;48.124;11.578;2023-04-16T11:39:47;0.53;;;0.53;;
982;SDS011;480;48.124;11.578;2023-04-16T11:42:18;0.80;;;0.50;;
982;SDS011;480;48.124;11.578;2023-04-16T11:44:51;1.00;;;0.90;;
982;SDS011;480;48.124;11.578;2023-04-16T11:47:19;0.80;;;0.80;;
982;SDS011;480;48.124;11.578;2023-04-16T11:49:46;0.80;;;0.67;;
982;SDS011;480;48.124;11.578;2023-04-16T11:52:14;1.30;;;0.90;;
982;SDS011;480;48.124;11.578;2023-04-16T11:54:51;0.90;;;0.90;;
982;SDS011;480;48.124;11.578;2023-04-16T11:57:22;1.10;;;1.00;;
982;SDS011;480;48.124;11.578;2023-04-16T11:59:52;0.97;;;0.97;;
982;SDS011;480;48.124;11.578;2023-04-16T12:02:35;0.80;;;0.80;;
982;SDS011;480;48.124;11.578;2023-04-16T12:05:03;1.03;;;0.70;;
982;SDS011;480;48.124;11.578;2023-04-16T12:07:42;1.00;;;1.00;;
982;SDS011;480;48.124;11.578;2023-04-16T12:10:09;1.10;;;0.90;;
982;SDS011;480;48.124;11.578;2023-04-16T12:12:37;1.00;;;1.00;;
982;SDS011;480;48.124;11.578;2023-04-16T12:15:06;1.13;;;0.73;;
982;SDS011;480;48.124;11.578;2023-04-16T12:17:33;0.73;;;0.70;;
982;SDS011;480;48.124;11.578;2023-04-16T12:20:02;0.70;;;0.67;;
982;SDS011;480;48.124;11.578;2023-04-16T12:22:34;1.27;;;1.17;;
982;SDS011;480;48.124;11.578;2023-04-16T12:25:02;1.47;;;1.23;;
982;SDS011;480;48.124;11.578;2023-04-16T12:27:43;1.30;;;1.20;;
982;SDS011;480;48.124;11.578;2023-04-16T12:30:13;1.13;;;0.73;;
982;SDS011;480;48.124;11.578;2023-04-16T12:32:41;0.80;;;0.60;;
982;SDS011;480;48.124;11.578;2023-04-16T12:35:09;1.00;;;1.00;;
982;SDS011;480;48.124;11.578;2023-04-16T12:37:37;1.10;;;0.83;;
982;SDS011;480;48.124;11.578;2023-04-16T12:40:05;0.60;;;0.60;;
982;SDS011;480;48.124;11.578;2023-04-16T12:42:51;1.97;;;1.00;;
982;SDS011;480;48.124;11.578;2023-04-16T12:45:20;0.80;;;0.70;;
982;SDS011;480;48.124;11.578;2023-04-16T12:47:47;0.73;;;0.70;;
982;SDS011;480;48.124;11.578;2023-04-16T12:50:21;0.57;;;0.57;;
982;SDS011;480;48.124;11.578;2023-04-16T12:52:55;0.60;;;0.60;;
982;SDS011;480;48.124;11.578;2023-04-16T12:55:35;1.00;;;1.00;;
982;SDS011;480;48.124;11.578;2023-04-16T12:58:01;1.13;;;1.10;;
982;SDS011;480;48.124;11.578;2023-04-16T13:00:32;1.17;;;1.00;;
982;SDS011;480;48.124;11.578;2023-04-16T13:02:59;1.20;;;1.10;;
982;SDS011;480;48.124;11.578;2023-04-16T13:05:26;0.80;;;0.80;;
982;SDS011;480;48.124;11.578;2023-04-16T13:07:54;1.30;;;1.20;;
982;SDS011;480;48.124;11.578;2023-04-16T13:10:21;1.40;;;1.00;;
982;SDS011;480;48.124;11.578;2023-04-16T13:12:48;0.70;;;0.70;;
982;SDS011;480;48.124;11.578;2023-04-16T13:15:15;2.47;;;0.80;;
982;SDS011;480;48.124;11.578;2023-04-16T13:17:43;1.00;;;0.80;;
982;SDS011;480;48.124;11.578;2023-04-16T13:20:10;1.23;;;1.13;;
982;SDS011;480;48.124;11.578;2023-04-16T13:22:37;1.83;;;1.00;;
982;SDS011;480;48.124;11.578;2023-04-16T13:25:04;1.67;;;1.07;;
982;SDS011;480;48.124;11.578;2023-04-16T13:27:32;1.00;;;1.00;;
982;SDS011;480;48.124;11.578;2023-04-16T13:29:59;1.10;;;0.83;;
982;SDS011;480;48.124;11.578;2023-04-16T13:32:26;1.10;;;0.80;;
982;SDS011;480;48.124;11.578;2023-04-16T13:34:55;0.80;;;0.80;;
982;SDS011;480;48.124;11.578;2023-04-16T13:37:22;0.73;;;0.67;;
982;SDS011;480;48.124;11.578;2023-04-16T13:39:49;0.73;;;0.73;;
982;SDS011;480;48.124;11.578;2023-04-16T13:42:15;1.10;;;1.00;;
982;SDS011;480;48.124;11.578;2023-04-16T13:44:42;0.77;;;0.77;;
982;SDS011;480;48.124;11.578;2023-04-16T13:47:12;1.10;;;0.87;;
982;SDS011;480;48.124;11.578;2023-04-16T13:49:40;0.97;;;0.87;;
982;SDS011;480;48.124;11.578;2023-04-16T13:52:08;1.43;;;1.13;;
982;SDS011;480;48.124;11.578;2023-04-16T13:54:35;1.07;;;0.80;;
982;SDS011;480;48.124;11.578;2023-04-16T13:57:02;0.60;;;0.60;;
982;SDS011;480;48.124;11.578;2023-04-16T13:59:38;0.87;;;0.87;;
982;SDS011;480;48.124;11.578;2023-04-16T14:02:09;4.80;;;0.87;;
982;SDS011;480;48.124;11.578;2023-04-16T14:04:36;0.70;;;0.70;;
982;SDS011;480;48.124;11.578;2023-04-16T14:07:03;0.60;;;0.60;;
982;SDS011;480;48.124;11.578;2023-04-16T14:09:31;0.70;;;0.60;;
982;SDS011;480;48.124;11.578;2023-04-16T14:11:58;2.03;;;0.90;;
982;SDS011;480;48.124;11.578;2023-04-16T14:14:25;0.70;;;0.70;;
982;SDS011;480;48.124;11.578;2023-04-16T14:16:52;0.80;;;0.60;;
982;SDS011;480;48.124;11.578;2023-04-16T14:19:20;0.60;;;0.60;;
982;SDS011;480;48.124;11.578;2023-04-16T14:21:47;1.00;;;0.70;;
982;SDS011;480;48.124;11.578;2023-04-16T14:24:14;0.67;;;0.60;;
982;SDS011;480;48.124;11.578;2023-04-16T14:26:43;0.60;;;0.60;;
982;SDS011;480;48.124;11.578;2023-04-16T14:29:10;0.80;;;0.70;;
982;SDS011;480;48.124;11.578;2023-04-16T14:31:37;1.33;;;0.70;;
982;SDS011;480;48.124;11.578;2023-04-16T14:34:04;0.80;;;0.57;;
982;SDS011;480;48.124;11.578;2023-04-16T14:36:31;1.50;;;0.80;;
982;SDS011;480;48.124;11.578;2023-04-16T14:38:58;0.60;;;0.60;;
982;SDS011;480;48.124;11.578;2023-04-16T14:41:25;1.00;;;0.50;;
982;SDS011;480;48.124;11.578;2023-04-16T14:43:54;0.50;;;0.50;;
982;SDS011;480;48.124;11.578;2023-04-16T14:46:20;0.57;;;0.40;;
982;SDS011;480;48.124;11.578;2023-04-16T14:48:47;0.50;;;0.50;;
982;SDS011;480;48.124;11.578;2023-04-16T14:51:14;0.67;;;0.67;;
982;SDS011;480;48.124;11.578;2023-04-16T14:53:41;0.67;;;0.67;;
982;SDS011;480;48.124;11.578;2023-04-16T14:56:08;1.20;;;0.83;;
982;SDS011;480;48.124;11.578;2023-04-16T14:58:37;0.80;;;0.80;;
982;SDS011;480;48.124;11.578;2023-04-16T15:01:07;0.60;;;0.50;;
982;SDS011;480;48.124;11.578;2023-04-16T15:03:34;0.90;;;0.90;;
982;SDS011;480;48.124;11.578;2023-04-16T15:06:01;0.90;;;0.90;;
982;SDS011;480;48.124;11.578;2023-04-16T15:08:28;1.10;;;0.77;;
982;SDS011;480;48.124;11.578;2023-04-16T15:10:55;0.70;;;0.70;;
982;SDS011;480;48.124;11.578;2023-04-16T15:13:22;1.10;;;0.77;;
982;SDS011;480;48.124;11.578;2023-04-16T15:15:49;0.70;;;0.70;;
982;SDS011;480;48.124;11.578;2023-04-16T15:18:18;0.73;;;0.73;;
982;SDS011;480;48.124;11.578;2023-04-16T15:20:45;0.83;;;0.83;;
982;SDS011;480;48.124;11.578;2023-04-16T15:23:15;1.17;;;1.07;;
982;SDS011;480;48.124;11.578;2023-04-16T15:25:42;0.70;;;0.70;;
982;SDS011;480;48.124;11.578;2023-04-16T15:28:09;0.80;;;0.80;;
982;SDS011;480;48.124;11.578;2023-04-16T15:30:36;1.07;;;0.97;;
982;SDS011;480;48.124;11.578;2023-04-16T15:33:04;0.80;;;0.80;;
982;SDS011;480;48.124;11.578;2023-04-16T15:35:33;1.00;;;0.90;;
982;SDS011;480;48.124;11.578;2023-04-16T15:38:02;1.93;;;1.30;;